createdAt,value
2018-07-15T00:02:55.491Z,99.99
2018-07-15T00:12:55.859Z,99.99
2018-07-15T00:22:55.525Z,99.99
2018-07-15T00:32:55.601Z,99.99
2018-07-15T00:42:55.562Z,99.99
2018-07-15T00:52:55.518Z,99.99
2018-07-15T01:02:55.537Z,99.99
2018-07-15T01:12:55.570Z,99.99
2018-07-15T01:22:55.510Z,99.99
2018-07-15T01:32:55.505Z,99.99
2018-07-15T01:42:55.590Z,99.99
2018-07-15T01:52:55.504Z,99.99
2018-07-15T02:02:55.603Z,99.99
2018-07-15T02:12:55.569Z,99.99
2018-07-15T02:22:55.504Z,99.99
2018-07-15T02:32:55.544Z,99.99
2018-07-15T02:42:55.487Z,99.99
2018-07-15T02:52:55.562Z,99.99
2018-07-15T03:02:55.536Z,99.99
2018-07-15T03:12:55.583Z,99.99
2018-07-15T03:22:55.564Z,99.99
2018-07-15T03:39:24.451Z,99.99
2018-07-15T03:42:55.524Z,99.99
2018-07-15T03:52:55.656Z,99.99
2018-07-15T04:02:55.557Z,99.99
2018-07-15T04:12:55.668Z,99.99
2018-07-15T04:22:55.656Z,99.99
2018-07-15T04:32:55.583Z,99.99
2018-07-15T04:42:55.638Z,99.99
2018-07-15T04:52:55.710Z,99.99
2018-07-15T05:02:55.652Z,99.99
2018-07-15T05:12:55.658Z,99.99
2018-07-15T05:22:55.738Z,99.99
2018-07-15T05:32:55.660Z,99.99
2018-07-15T05:42:55.743Z,99.99
2018-07-15T05:52:55.717Z,99.99
2018-07-15T06:02:55.795Z,99.99
2018-07-15T06:12:55.785Z,99.99
2018-07-15T06:22:55.742Z,85.91
2018-07-15T06:32:55.839Z,63.21
2018-07-15T06:42:55.721Z,53.08
2018-07-15T06:52:55.717Z,48.44
2018-07-15T07:02:55.770Z,46.37
2018-07-15T07:12:55.713Z,43.02
2018-07-15T07:22:55.845Z,39.68
2018-07-15T07:32:55.768Z,38.32
2018-07-15T07:42:55.861Z,36.53
2018-07-15T07:52:55.866Z,34.61
2018-07-15T08:02:55.765Z,32.75
2018-07-15T08:12:55.854Z,31.7
2018-07-15T08:22:55.829Z,29.41
2018-07-15T08:32:55.838Z,28.18
2018-07-15T08:42:55.799Z,29.75
2018-07-15T08:52:55.773Z,29.54
2018-07-15T09:02:55.843Z,28.41
2018-07-15T09:12:55.785Z,28.85
2018-07-15T09:22:55.862Z,38.06
2018-07-15T09:32:55.783Z,44.84
2018-07-15T09:42:55.900Z,49.41
2018-07-15T09:52:55.850Z,49.29
2018-07-15T10:02:55.808Z,53.22
2018-07-15T10:13:08.868Z,50.89
2018-07-15T10:22:55.800Z,51.54
2018-07-15T10:32:55.775Z,53.39
2018-07-15T10:42:55.822Z,50.48
2018-07-15T10:52:55.846Z,53.94
2018-07-15T11:02:59.768Z,53.97
2018-07-15T11:12:55.835Z,50.12
2018-07-15T11:22:55.813Z,50.12
2018-07-15T11:32:55.959Z,53.8
2018-07-15T11:42:55.816Z,50.82
2018-07-15T11:52:58.652Z,50.14
2018-07-15T12:02:59.553Z,50.36
2018-07-15T12:13:04.749Z,47.06
2018-07-15T12:23:19.999Z,48.42
2018-07-15T12:33:00.134Z,47.55
2018-07-15T12:43:01.318Z,43.47
2018-07-15T12:53:00.757Z,47.93
2018-07-15T13:03:00.110Z,46.69
2018-07-15T13:13:21.179Z,44.85
2018-07-15T13:23:00.805Z,42.71
2018-07-15T13:32:59.802Z,47.18
2018-07-15T13:42:59.940Z,45.82
2018-07-15T13:53:00.828Z,43.61
2018-07-15T14:02:59.418Z,46.14
2018-07-15T14:12:59.461Z,45.75
2018-07-15T14:23:01.179Z,45.65
2018-07-15T14:32:55.845Z,45.26
2018-07-15T14:42:55.904Z,45.87
2018-07-15T14:52:55.915Z,45.84
2018-07-15T15:03:00.540Z,47.11
2018-07-15T15:13:00.024Z,45.38
2018-07-15T15:22:59.766Z,45.87
2018-07-15T15:33:01.121Z,48.2
2018-07-15T15:43:00.647Z,45.57
2018-07-15T15:52:59.971Z,49.05
2018-07-15T16:03:20.683Z,46.72
2018-07-15T16:12:59.814Z,47.98
2018-07-15T16:22:59.906Z,47.49
2018-07-15T16:32:59.977Z,47.78
2018-07-15T16:42:59.141Z,48.57
2018-07-15T16:53:04.622Z,48.83
2018-07-15T17:02:59.434Z,46.5
2018-07-15T17:13:01.008Z,46.5
2018-07-15T17:23:00.406Z,49.22
2018-07-15T17:33:01.515Z,49.49
2018-07-15T17:42:59.753Z,52.59
2018-07-15T17:52:59.183Z,51.69
2018-07-15T18:02:59.809Z,51.37
2018-07-15T18:12:59.642Z,51.86
2018-07-15T18:22:59.827Z,53.97
2018-07-15T18:33:01.431Z,55
2018-07-15T18:43:10.871Z,55.76
2018-07-15T18:53:16.090Z,58.07
2018-07-15T19:03:20.061Z,60.72
2018-07-15T19:13:01.778Z,62.05
2018-07-15T19:23:01.177Z,64.05
2018-07-15T19:33:00.383Z,67.3
2018-07-15T19:43:00.953Z,69.16
2018-07-15T19:53:00.369Z,72.02
2018-07-15T20:03:21.842Z,73.39
2018-07-15T20:13:21.829Z,75.76
2018-07-15T20:22:59.480Z,80.38
2018-07-15T20:32:59.737Z,83.72
2018-07-15T20:42:59.448Z,85.94
2018-07-15T20:53:03.013Z,87.19
2018-07-15T21:03:16.418Z,90.99
2018-07-15T21:13:22.476Z,91.23
2018-07-15T21:22:59.269Z,89.69
2018-07-15T21:33:00.088Z,89.6
2018-07-15T21:42:55.969Z,92.77
2018-07-15T21:52:56.099Z,95.94
2018-07-15T22:02:55.996Z,98
2018-07-15T22:12:56.054Z,99.99
2018-07-15T22:22:56.046Z,99.99
2018-07-15T22:32:55.913Z,99.99
2018-07-15T22:42:55.980Z,99.99
2018-07-15T22:52:55.983Z,99.99
2018-07-15T23:02:56.034Z,99.99
2018-07-15T23:12:55.949Z,99.99
2018-07-15T23:23:00.112Z,99.99
2018-07-15T23:32:55.977Z,99.99
2018-07-15T23:42:55.938Z,99.99
2018-07-15T23:52:56.005Z,99.99
